Time;durP1;ratioP1;P1;durP2;ratioP2;P2;SDS_P1;SDS_P2;PMS_P1;PMS_P2;Temp;Humidity;BMP_temperature;BMP_pressure;BME280_temperature;BME280_humidity;BME280_pressure;Samples;Min_cycle;Max_cycle;Signal;HPM_P1;HPM_P2
2022/12/25 00:01:16;;;;;;;122.53;25.38;;;4.90;99.90;;;;;;5027483;28;20120;-82
2022/12/25 00:03:42;;;;;;;109.25;25.98;;;5.10;99.90;;;;;;5031188;28;20047;-81
2022/12/25 00:06:07;;;;;;;124.82;26.90;;;5.20;99.90;;;;;;5031970;28;20036;-83
2022/12/25 00:08:35;;;;;;;97.05;24.55;;;5.20;99.90;;;;;;5041484;28;20124;-81
2022/12/25 00:11:04;;;;;;;115.20;26.63;;;4.90;99.90;;;;;;5019142;28;20100;-81
2022/12/25 00:13:30;;;;;;;112.50;26.90;;;5.00;99.90;;;;;;5033675;28;20056;-79
2022/12/25 00:15:56;;;;;;;101.97;24.55;;;5.10;99.90;;;;;;5050648;28;20041;-79
2022/12/25 00:18:22;;;;;;;98.07;24.85;;;5.30;99.90;;;;;;5052408;28;20042;-83
2022/12/25 00:21:00;;;;;;;108.32;25.63;;;5.10;99.90;;;;;;5034508;28;20366;-82
2022/12/25 00:23:26;;;;;;;104.93;25.23;;;4.90;99.90;;;;;;5058831;28;20049;-81
2022/12/25 00:25:53;;;;;;;111.40;25.58;;;5.10;99.90;;;;;;5029434;28;20041;-82
2022/12/25 00:28:19;;;;;;;107.28;25.95;;;5.00;99.90;;;;;;5055904;28;21308;-80
2022/12/25 00:30:46;;;;;;;103.95;25.55;;;4.90;99.90;;;;;;5019859;28;20047;-80
2022/12/25 00:33:11;;;;;;;147.15;27.15;;;4.90;99.90;;;;;;5037159;28;20049;-80
2022/12/25 00:35:37;;;;;;;117.40;26.17;;;4.90;99.90;;;;;;5019952;28;20055;-81
2022/12/25 00:38:03;;;;;;;119.70;26.63;;;4.90;99.90;;;;;;5026921;28;20052;-83
2022/12/25 00:40:29;;;;;;;127.70;26.25;;;4.80;99.90;;;;;;5030887;28;20037;-81
2022/12/25 00:42:54;;;;;;;131.77;27.25;;;4.90;99.90;;;;;;5047538;28;20059;-80
2022/12/25 00:45:20;;;;;;;123.53;26.52;;;4.90;99.90;;;;;;5041714;28;20053;-82
2022/12/25 00:47:46;;;;;;;106.75;24.52;;;4.90;99.90;;;;;;5032268;28;20501;-81
2022/12/25 00:50:11;;;;;;;103.20;25.63;;;4.70;99.90;;;;;;5020177;28;20049;-81
2022/12/25 00:52:38;;;;;;;123.30;27.10;;;4.70;99.90;;;;;;5022401;28;20034;-83
2022/12/25 00:55:05;;;;;;;107.45;26.45;;;4.70;99.90;;;;;;5060028;28;20102;-82
2022/12/25 00:57:32;;;;;;;117.57;27.65;;;5.00;99.90;;;;;;5038069;28;20061;-81
2022/12/25 01:00:00;;;;;;;104.47;24.65;;;5.00;99.90;;;;;;5026983;28;20052;-81
2022/12/25 01:02:26;;;;;;;122.35;27.13;;;4.80;99.90;;;;;;5029223;28;20033;-79
2022/12/25 01:08:17;;;;;;;137.60;28.40;;;4.90;99.90;;;;;;5038460;28;20041;-82
2022/12/25 01:10:42;;;;;;;146.93;29.08;;;5.00;99.90;;;;;;5028177;28;20342;-82
2022/12/25 01:13:09;;;;;;;152.88;29.13;;;5.00;99.90;;;;;;5038157;28;20034;-78
2022/12/25 01:15:36;;;;;;;119.65;27.80;;;5.10;99.90;;;;;;5039017;28;20100;-81
2022/12/25 01:18:39;;;;;;;142.55;29.88;;;5.00;99.90;;;;;;5046504;28;20338;-82
2022/12/25 01:21:16;;;;;;;115.93;28.08;;;5.10;99.90;;;;;;5048167;28;20116;-81
2022/12/25 01:23:43;;;;;;;125.30;27.17;;;5.10;99.90;;;;;;5057391;28;20037;-81
2022/12/25 01:26:11;;;;;;;119.00;26.65;;;5.40;99.90;;;;;;5030612;28;20125;-81
2022/12/25 01:28:37;;;;;;;135.13;27.70;;;5.30;99.90;;;;;;5048953;28;20473;-83
2022/12/25 01:31:04;;;;;;;118.32;27.77;;;5.30;99.90;;;;;;5046829;28;20068;-82
2022/12/25 01:33:30;;;;;;;134.80;28.15;;;5.50;99.90;;;;;;5054958;28;20092;-80
2022/12/25 01:35:57;;;;;;;128.85;28.17;;;5.30;99.90;;;;;;5049403;28;20104;-81
2022/12/25 01:38:23;;;;;;;115.72;27.52;;;5.30;99.90;;;;;;5046345;28;20076;-83
2022/12/25 01:40:49;;;;;;;141.43;28.98;;;5.30;99.90;;;;;;5028461;28;20080;-80
2022/12/25 01:43:23;;;;;;;153.30;29.25;;;5.30;99.90;;;;;;5047941;28;20139;-82
2022/12/25 01:45:51;;;;;;;155.85;29.52;;;5.40;99.90;;;;;;5026956;28;20045;-82
2022/12/25 01:48:20;;;;;;;187.52;32.15;;;5.70;99.90;;;;;;5059939;28;20503;-82
2022/12/25 01:50:54;;;;;;;144.82;32.28;;;5.60;99.90;;;;;;5045517;28;20189;-80
2022/12/25 01:53:21;;;;;;;150.27;29.80;;;5.50;99.90;;;;;;5034437;28;20041;-82
2022/12/25 01:55:49;;;;;;;150.88;31.27;;;5.50;99.90;;;;;;5024155;28;20129;-82
2022/12/25 01:58:16;;;;;;;173.45;33.08;;;5.70;99.90;;;;;;5051082;28;20040;-79
2022/12/25 02:00:42;;;;;;;156.52;31.90;;;5.90;99.90;;;;;;5031563;28;20076;-80
2022/12/25 02:03:08;;;;;;;181.48;33.75;;;5.80;99.90;;;;;;5037852;28;20100;-81
2022/12/25 02:05:34;;;;;;;169.05;33.42;;;5.80;99.90;;;;;;5035740;28;20059;-81
2022/12/25 02:08:13;;;;;;;175.02;34.25;;;5.80;99.90;;;;;;5021693;28;20469;-80
2022/12/25 02:10:39;;;;;;;164.05;34.13;;;5.80;99.90;;;;;;5034959;28;20131;-82
2022/12/25 02:13:06;;;;;;;164.75;34.47;;;6.20;99.90;;;;;;5031006;28;20195;-80
2022/12/25 02:15:41;;;;;;;146.98;33.70;;;6.00;99.90;;;;;;5050424;28;20026;-80
2022/12/25 02:22:42;;;;;;;151.00;33.45;;;6.10;99.90;;;;;;5050722;28;20084;-83
2022/12/25 02:25:26;;;;;;;156.02;33.90;;;6.20;99.90;;;;;;5003095;28;20033;-83
2022/12/25 02:27:56;;;;;;;149.85;34.22;;;6.40;99.90;;;;;;5008104;28;20452;-82
2022/12/25 02:30:22;;;;;;;149.73;34.63;;;6.20;99.90;;;;;;4997953;28;20081;-81
2022/12/25 02:36:06;;;;;;;160.88;35.35;;;6.60;99.90;;;;;;5004633;28;20131;-82
2022/12/25 02:39:56;;;;;;;134.13;33.53;;;6.30;99.90;;;;;;4977951;28;20092;-81
2022/12/25 02:41:28;;;;;;;137.90;34.17;;;6.60;99.90;;;;;;4984281;28;20442;-83
2022/12/25 03:07:08;;;;;;;134.65;33.80;;;6.40;99.90;;;;;;5067882;28;20133;-81
2022/12/25 03:12:44;;;;;;;153.98;34.97;;;6.60;99.90;;;;;;5046564;28;20060;-81
2022/12/25 03:18:01;;;;;;;132.55;34.28;;;6.60;99.90;;;;;;5039284;28;20072;-80
2022/12/25 03:28:47;;;;;;;105.15;28.58;;;6.60;99.90;;;;;;5033038;28;20126;-81
2022/12/25 03:31:21;;;;;;;104.57;30.45;;;6.50;99.90;;;;;;5063497;28;20077;-79
2022/12/25 04:36:53;;;;;;;145.63;36.47;;;7.30;99.90;;;;;;5035190;28;20042;-80
2022/12/25 04:39:20;;;;;;;155.52;37.80;;;7.00;99.90;;;;;;5038014;28;20056;-80
2022/12/25 04:41:46;;;;;;;152.77;36.03;;;7.20;99.90;;;;;;5020002;28;20056;-80
2022/12/25 04:44:11;;;;;;;146.90;37.72;;;7.20;99.90;;;;;;5045597;28;20058;-82
2022/12/25 04:46:37;;;;;;;163.85;37.75;;;7.30;99.90;;;;;;5025163;28;20495;-82
2022/12/25 04:49:03;;;;;;;156.75;37.15;;;7.10;99.90;;;;;;5049634;28;20041;-82
2022/12/25 04:51:28;;;;;;;167.52;39.50;;;7.10;99.90;;;;;;5043844;28;20037;-79
2022/12/25 04:53:55;;;;;;;170.15;38.65;;;7.40;99.90;;;;;;5045356;28;20528;-79
2022/12/25 04:56:21;;;;;;;163.40;38.80;;;7.30;99.90;;;;;;5049840;28;20100;-80
2022/12/25 04:58:47;;;;;;;144.88;37.42;;;7.50;99.90;;;;;;5040772;28;20038;-81
2022/12/25 05:01:14;;;;;;;143.45;36.58;;;7.40;99.90;;;;;;5036593;28;20052;-81
2022/12/25 05:03:40;;;;;;;141.32;36.47;;;7.30;99.90;;;;;;5049384;28;20087;-82
2022/12/25 05:06:06;;;;;;;155.48;36.40;;;7.40;99.90;;;;;;5036873;28;20083;-81
2022/12/25 05:08:33;;;;;;;136.85;37.42;;;7.40;99.90;;;;;;5040030;28;20040;-81
2022/12/25 05:10:59;;;;;;;140.15;35.60;;;7.70;99.90;;;;;;5055496;28;20408;-82
2022/12/25 05:13:25;;;;;;;141.43;34.35;;;7.30;99.90;;;;;;5033439;28;20041;-81
2022/12/25 05:15:51;;;;;;;128.73;33.70;;;7.60;99.90;;;;;;5031820;28;20100;-80
2022/12/25 05:18:17;;;;;;;140.18;35.30;;;7.30;99.90;;;;;;5044429;28;20376;-80
2022/12/25 05:20:49;;;;;;;130.15;33.42;;;7.60;99.90;;;;;;5016804;28;20121;-80
2022/12/25 05:23:15;;;;;;;153.30;36.35;;;7.40;99.90;;;;;;5043761;28;20124;-81
2022/12/25 05:25:41;;;;;;;129.23;34.13;;;7.40;99.90;;;;;;5063659;28;20127;-81
2022/12/25 05:28:07;;;;;;;148.52;33.65;;;7.40;99.90;;;;;;5048154;28;20041;-83
2022/12/25 05:30:33;;;;;;;126.65;34.28;;;7.70;99.90;;;;;;5014711;28;20045;-82
2022/12/25 05:32:59;;;;;;;129.27;32.92;;;7.50;99.90;;;;;;5019533;28;20128;-81
2022/12/25 05:35:31;;;;;;;139.82;33.35;;;7.50;99.90;;;;;;5043073;28;20149;-81
2022/12/25 05:37:57;;;;;;;157.43;34.88;;;7.70;99.90;;;;;;5040308;28;20057;-83
2022/12/25 05:40:23;;;;;;;145.95;35.10;;;7.60;99.90;;;;;;5015962;28;20037;-80
2022/12/25 05:42:49;;;;;;;152.93;35.53;;;7.60;99.90;;;;;;5036778;28;20038;-79
2022/12/25 05:45:14;;;;;;;148.77;36.08;;;7.50;99.90;;;;;;5049619;28;20049;-80
2022/12/25 05:47:40;;;;;;;128.13;33.63;;;7.50;99.90;;;;;;5049602;28;20541;-79
2022/12/25 05:50:45;;;;;;;139.30;36.00;;;7.90;99.90;;;;;;5054415;28;20073;-80
2022/12/25 05:53:13;;;;;;;138.25;36.38;;;7.80;99.90;;;;;;5052773;28;20041;-79
2022/12/25 05:55:42;;;;;;;154.63;35.97;;;7.70;99.90;;;;;;5050499;28;20068;-81
2022/12/25 05:58:09;;;;;;;161.25;36.22;;;7.50;99.90;;;;;;5046801;28;20045;-82
2022/12/25 06:00:35;;;;;;;182.60;37.90;;;7.60;99.90;;;;;;5020955;28;20094;-82
2022/12/25 06:03:01;;;;;;;164.07;36.22;;;7.60;99.90;;;;;;5049019;28;20045;-81
2022/12/25 06:05:27;;;;;;;157.30;37.75;;;7.80;99.90;;;;;;5044231;28;20108;-80
2022/12/25 06:07:53;;;;;;;155.50;35.38;;;7.50;99.90;;;;;;5056763;28;20083;-82
2022/12/25 06:10:19;;;;;;;145.55;36.45;;;7.70;99.90;;;;;;5034303;28;20504;-81
2022/12/25 06:12:44;;;;;;;161.25;37.83;;;7.80;99.90;;;;;;5063407;28;20075;-83
2022/12/25 06:15:13;;;;;;;144.90;36.40;;;7.80;99.90;;;;;;5060906;28;20119;-80
2022/12/25 06:17:39;;;;;;;151.10;36.90;;;7.80;99.90;;;;;;5054969;28;20086;-80
2022/12/25 06:20:06;;;;;;;158.75;39.92;;;7.80;99.90;;;;;;5069853;28;20045;-79
2022/12/25 06:22:33;;;;;;;149.30;37.10;;;7.80;99.90;;;;;;5026379;28;20050;-78
2022/12/25 06:24:59;;;;;;;152.95;38.10;;;7.90;99.90;;;;;;5043620;28;20055;-79
2022/12/25 06:27:25;;;;;;;153.88;38.22;;;7.90;99.90;;;;;;5036459;28;20160;-79
2022/12/25 06:29:51;;;;;;;170.15;40.53;;;7.70;99.90;;;;;;5028678;28;20048;-80
2022/12/25 06:32:17;;;;;;;162.60;39.47;;;7.70;99.90;;;;;;5035637;28;20084;-82
2022/12/25 06:34:43;;;;;;;168.18;39.95;;;7.90;99.90;;;;;;5038383;28;20447;-80
2022/12/25 06:37:09;;;;;;;155.38;38.85;;;7.80;99.90;;;;;;5036184;28;20053;-81
2022/12/25 06:39:35;;;;;;;191.88;40.95;;;7.70;99.90;;;;;;5020249;28;20102;-81
2022/12/25 06:42:00;;;;;;;170.93;39.05;;;7.90;99.90;;;;;;5018160;28;20140;-80
2022/12/25 06:44:26;;;;;;;187.18;41.78;;;7.70;99.90;;;;;;5037815;28;20056;-80
2022/12/25 06:46:53;;;;;;;165.95;39.40;;;8.00;99.90;;;;;;5068069;28;20068;-79
2022/12/25 06:49:20;;;;;;;172.02;41.20;;;7.90;99.90;;;;;;5024510;28;20061;-82
2022/12/25 06:51:46;;;;;;;190.68;41.35;;;7.70;99.90;;;;;;5036582;28;20050;-80
2022/12/25 06:54:12;;;;;;;175.05;41.15;;;8.00;99.90;;;;;;5039020;28;20056;-80
2022/12/25 06:56:37;;;;;;;166.05;39.25;;;7.60;99.90;;;;;;5035839;28;20075;-81
2022/12/25 06:59:05;;;;;;;197.80;42.92;;;7.90;99.90;;;;;;5036155;28;20053;-82
2022/12/25 07:02:01;;;;;;;161.23;41.30;;;7.80;99.90;;;;;;5039709;28;20749;-81
2022/12/25 07:04:38;;;;;;;169.05;41.97;;;8.00;99.90;;;;;;5036307;28;20057;-78
2022/12/25 07:07:06;;;;;;;182.77;42.10;;;7.90;99.90;;;;;;5037448;28;20037;-82
2022/12/25 07:09:32;;;;;;;201.68;43.20;;;7.80;99.90;;;;;;5022273;28;20123;-79
2022/12/25 07:12:03;;;;;;;169.18;41.95;;;7.80;99.90;;;;;;5062273;28;20124;-81
2022/12/25 07:14:29;;;;;;;155.95;39.90;;;8.00;99.90;;;;;;5038896;28;20097;-81
2022/12/25 07:16:58;;;;;;;165.45;40.78;;;7.90;99.90;;;;;;5034460;28;20048;-82
2022/12/25 07:19:24;;;;;;;181.50;42.85;;;7.90;99.90;;;;;;5019705;28;20049;-81
2022/12/25 07:21:50;;;;;;;163.10;41.15;;;7.80;99.90;;;;;;5034199;28;20530;-81
2022/12/25 07:24:20;;;;;;;143.32;39.60;;;7.90;99.90;;;;;;5035026;28;20048;-83
2022/12/25 07:26:47;;;;;;;163.18;39.72;;;7.90;99.90;;;;;;5036951;28;20072;-81
2022/12/25 07:29:12;;;;;;;163.40;39.67;;;7.90;99.90;;;;;;5070351;28;20055;-80
2022/12/25 07:31:38;;;;;;;149.30;39.97;;;7.90;99.90;;;;;;5034727;28;20040;-79
2022/12/25 07:34:04;;;;;;;151.60;39.20;;;8.00;99.90;;;;;;5029867;28;20084;-82
2022/12/25 07:36:29;;;;;;;168.02;40.35;;;8.00;99.90;;;;;;5022471;28;20496;-79
2022/12/25 07:38:55;;;;;;;149.65;37.83;;;8.00;99.90;;;;;;5021456;28;20128;-80
2022/12/25 07:41:22;;;;;;;152.80;39.65;;;7.90;99.90;;;;;;5022458;28;20048;-82
2022/12/25 07:43:52;;;;;;;145.15;37.78;;;8.10;99.90;;;;;;5055557;28;20037;-79
2022/12/25 07:46:18;;;;;;;151.52;37.88;;;8.00;99.90;;;;;;5024014;28;20052;-83
2022/12/25 07:48:44;;;;;;;117.35;35.67;;;7.70;99.90;;;;;;5051449;28;20044;-81
2022/12/25 07:51:12;;;;;;;127.95;37.10;;;8.10;99.90;;;;;;5021687;28;20170;-81
2022/12/25 07:53:39;;;;;;;142.20;36.75;;;8.20;99.90;;;;;;5021777;28;20141;-80
2022/12/25 07:56:25;;;;;;;138.05;36.35;;;7.90;99.90;;;;;;5008371;28;20095;-81
2022/12/25 07:58:50;;;;;;;130.23;37.20;;;7.90;99.90;;;;;;5013308;28;20056;-82
2022/12/25 08:01:19;;;;;;;130.90;36.58;;;8.10;99.90;;;;;;5035464;28;20445;-80
2022/12/25 08:04:03;;;;;;;140.30;36.85;;;8.00;99.90;;;;;;5020878;28;20041;-82
2022/12/25 08:06:32;;;;;;;124.35;35.65;;;8.10;99.90;;;;;;5034499;28;20041;-82
2022/12/25 08:09:07;;;;;;;120.68;34.20;;;8.00;99.90;;;;;;5034888;28;20044;-82
2022/12/25 08:11:33;;;;;;;127.88;34.75;;;8.10;99.90;;;;;;5036525;28;20038;-81
2022/12/25 08:13:59;;;;;;;94.20;32.70;;;8.20;99.90;;;;;;5001862;28;20041;-80
2022/12/25 08:16:25;;;;;;;111.50;32.92;;;8.10;99.90;;;;;;5014323;28;20045;-79
2022/12/25 08:18:52;;;;;;;109.20;33.33;;;8.10;99.90;;;;;;5029799;28;20052;-78
2022/12/25 08:21:18;;;;;;;103.03;32.28;;;8.30;99.90;;;;;;5036681;28;20038;-81
2022/12/25 08:23:45;;;;;;;92.25;30.80;;;8.10;99.90;;;;;;5031297;28;20052;-81
2022/12/25 08:26:14;;;;;;;100.90;31.42;;;8.00;99.90;;;;;;5031751;28;20531;-81
2022/12/25 08:28:40;;;;;;;99.05;30.85;;;8.10;99.90;;;;;;5018046;28;20079;-80
2022/12/25 08:31:21;;;;;;;90.18;30.30;;;8.10;99.90;;;;;;5033506;28;20046;-80
2022/12/25 08:33:48;;;;;;;89.13;29.42;;;8.10;99.90;;;;;;5036806;28;20041;-80
2022/12/25 08:36:14;;;;;;;82.90;29.02;;;8.40;99.90;;;;;;5049432;28;20345;-81
2022/12/25 08:38:40;;;;;;;84.53;29.02;;;8.10;99.90;;;;;;5066129;28;20052;-79
2022/12/25 08:41:06;;;;;;;63.88;26.52;;;8.30;99.90;;;;;;5031993;28;20042;-83
2022/12/25 08:43:33;;;;;;;67.47;25.98;;;8.10;99.90;;;;;;5037601;28;20041;-81
2022/12/25 08:45:59;;;;;;;71.32;26.92;;;8.40;99.90;;;;;;5060026;28;20072;-82
2022/12/25 08:48:25;;;;;;;77.80;27.20;;;8.30;99.90;;;;;;5026449;28;20076;-83
2022/12/25 08:50:51;;;;;;;78.05;26.77;;;8.30;99.90;;;;;;5042264;28;20071;-84
2022/12/25 08:53:18;;;;;;;74.55;27.13;;;8.10;99.90;;;;;;5026268;28;20029;-82
2022/12/25 08:55:43;;;;;;;75.55;25.98;;;8.20;99.90;;;;;;5022957;28;20053;-81
2022/12/25 08:58:09;;;;;;;69.25;25.73;;;8.20;99.90;;;;;;5018713;28;20396;-83
2022/12/25 09:00:38;;;;;;;60.47;23.90;;;8.30;99.90;;;;;;5039506;28;20055;-81
2022/12/25 09:03:04;;;;;;;68.43;25.58;;;8.10;99.90;;;;;;5041486;28;20037;-80
2022/12/25 09:09:11;;;;;;;60.90;23.67;;;8.30;99.90;;;;;;5045638;28;20044;-80
2022/12/25 09:11:36;;;;;;;68.38;23.90;;;8.20;99.90;;;;;;5035934;28;20326;-81
2022/12/25 09:14:03;;;;;;;69.28;23.95;;;8.30;99.90;;;;;;5043303;28;20046;-83
2022/12/25 09:16:28;;;;;;;62.25;22.63;;;8.30;99.90;;;;;;5038443;28;20045;-81
2022/12/25 09:19:50;;;;;;;66.95;23.10;;;8.20;99.90;;;;;;5039562;28;20044;-81
2022/12/25 09:22:16;;;;;;;55.55;20.92;;;8.20;99.90;;;;;;5035506;28;20033;-80
2022/12/25 09:24:42;;;;;;;56.95;21.45;;;8.30;99.90;;;;;;5019280;28;20052;-80
2022/12/25 09:27:08;;;;;;;53.45;21.13;;;8.30;99.90;;;;;;5020374;28;20041;-80
2022/12/25 09:29:34;;;;;;;52.67;21.25;;;8.20;99.90;;;;;;5063273;28;20041;-80
2022/12/25 09:31:59;;;;;;;48.63;19.48;;;8.20;99.90;;;;;;5022462;28;21852;-80
2022/12/25 09:35:04;;;;;;;48.45;19.08;;;8.20;99.90;;;;;;5071660;28;20487;-78
2022/12/25 09:37:29;;;;;;;44.72;18.98;;;8.20;99.90;;;;;;5046441;28;20046;-81
2022/12/25 09:39:57;;;;;;;52.80;19.83;;;8.30;99.90;;;;;;5017353;28;20344;-82
2022/12/25 09:42:27;;;;;;;45.88;19.23;;;8.20;99.90;;;;;;5025787;28;20461;-81
2022/12/25 09:45:12;;;;;;;45.50;19.17;;;8.40;99.90;;;;;;5035516;28;20049;-80
2022/12/25 09:47:43;;;;;;;46.67;18.23;;;8.50;99.90;;;;;;5062696;28;20048;-79
2022/12/25 09:50:21;;;;;;;49.38;19.35;;;8.50;99.90;;;;;;5046942;28;20033;-84
2022/12/25 09:53:06;;;;;;;44.83;17.98;;;8.30;99.90;;;;;;5022870;28;20475;-84
2022/12/25 09:55:42;;;;;;;34.30;17.00;;;8.50;99.90;;;;;;5019350;28;20044;-81
2022/12/25 09:58:11;;;;;;;42.22;16.73;;;8.50;99.90;;;;;;5054776;28;20036;-80
2022/12/25 10:00:46;;;;;;;35.00;15.93;;;8.40;99.90;;;;;;5068363;28;20419;-85
2022/12/25 10:03:49;;;;;;;41.50;16.42;;;8.40;99.90;;;;;;5040041;28;20041;-84
2022/12/25 10:10:23;;;;;;;36.47;15.55;;;8.50;99.90;;;;;;5039894;28;20041;-82
2022/12/25 10:13:09;;;;;;;35.42;15.20;;;8.60;99.90;;;;;;5045913;28;20066;-80
2022/12/25 10:15:58;;;;;;;30.15;14.73;;;8.50;99.90;;;;;;5030085;28;20053;-82
2022/12/25 10:18:29;;;;;;;39.53;15.95;;;8.30;99.90;;;;;;5031883;28;20041;-81
2022/12/25 10:20:58;;;;;;;33.28;15.65;;;8.20;99.90;;;;;;5056305;28;20152;-82
2022/12/25 10:23:45;;;;;;;35.70;15.70;;;8.30;99.90;;;;;;5024067;28;20052;-80
2022/12/25 10:26:17;;;;;;;38.10;14.88;;;8.20;99.90;;;;;;5038857;28;20117;-81
2022/12/25 10:28:46;;;;;;;42.75;15.07;;;8.40;99.90;;;;;;5045862;28;20068;-81
2022/12/25 10:31:19;;;;;;;37.72;14.25;;;8.60;99.90;;;;;;5042289;28;20036;-84
2022/12/25 10:33:47;;;;;;;36.90;14.18;;;8.60;99.90;;;;;;5042375;28;20081;-80
2022/12/25 10:36:17;;;;;;;35.28;14.48;;;8.30;99.90;;;;;;5042393;28;20333;-80
2022/12/25 10:38:43;;;;;;;37.70;14.30;;;8.60;99.90;;;;;;5036156;28;20045;-79
2022/12/25 10:41:47;;;;;;;33.92;13.63;;;8.30;99.90;;;;;;5054601;28;20036;-82
2022/12/25 10:44:19;;;;;;;36.60;14.23;;;8.40;99.90;;;;;;5029129;28;20162;-83
2022/12/25 10:46:56;;;;;;;33.40;13.07;;;8.70;99.90;;;;;;5082317;28;20463;-81
2022/12/25 10:53:05;;;;;;;31.60;12.50;;;8.70;99.90;;;;;;5035663;28;20126;-81
2022/12/25 10:55:32;;;;;;;32.42;13.00;;;8.60;99.90;;;;;;5036020;28;20034;-83
2022/12/25 10:57:58;;;;;;;36.13;12.68;;;8.50;99.90;;;;;;5041496;28;20041;-80
2022/12/25 11:00:27;;;;;;;29.30;12.95;;;8.40;99.90;;;;;;5044124;28;20049;-82
2022/12/25 11:02:53;;;;;;;32.35;13.02;;;8.60;99.90;;;;;;5039226;28;20488;-81
2022/12/25 11:05:27;;;;;;;28.70;12.05;;;8.50;99.90;;;;;;5019010;28;20052;-81
2022/12/25 11:07:54;;;;;;;26.70;11.73;;;8.80;99.90;;;;;;5057412;28;20060;-79
2022/12/25 11:10:36;;;;;;;33.65;12.57;;;8.80;99.90;;;;;;5049160;28;20052;-80
2022/12/25 11:13:06;;;;;;;26.85;11.60;;;8.80;99.90;;;;;;5046909;28;20067;-80
2022/12/25 11:16:03;;;;;;;33.45;12.13;;;8.60;99.90;;;;;;5045776;28;20075;-82
2022/12/25 11:18:33;;;;;;;32.55;12.02;;;8.70;99.90;;;;;;5021042;28;20452;-80
2022/12/25 11:21:31;;;;;;;27.30;11.90;;;8.90;99.90;;;;;;5042384;28;20032;-80
2022/12/25 11:24:02;;;;;;;25.67;11.55;;;8.80;99.90;;;;;;5039232;28;20067;-83
2022/12/25 11:26:45;;;;;;;22.98;10.27;;;8.80;99.90;;;;;;5033562;28;20073;-78
2022/12/25 11:29:32;;;;;;;24.38;9.80;;;8.80;99.90;;;;;;5068047;28;20546;-80
2022/12/25 11:32:01;;;;;;;28.77;11.30;;;8.90;99.90;;;;;;5019655;28;20627;-78
2022/12/25 11:34:39;;;;;;;26.20;10.32;;;8.70;99.90;;;;;;5033214;28;20455;-81
2022/12/25 11:37:36;;;;;;;23.45;9.98;;;9.00;99.90;;;;;;5027409;28;20044;-81
2022/12/25 11:40:02;;;;;;;21.88;10.05;;;8.90;99.90;;;;;;5009443;28;20069;-82
2022/12/25 11:42:40;;;;;;;19.42;9.50;;;9.20;99.90;;;;;;4972576;28;20058;-81
2022/12/25 11:45:24;;;;;;;27.48;9.73;;;8.90;99.90;;;;;;5006283;28;20054;-79
2022/12/25 11:47:55;;;;;;;21.08;9.38;;;8.80;99.90;;;;;;4983550;28;21010;-79
2022/12/25 11:50:38;;;;;;;24.08;9.32;;;8.90;99.90;;;;;;4998812;28;20058;-85
2022/12/25 11:53:34;;;;;;;24.67;9.50;;;8.90;99.90;;;;;;4985399;28;20050;-84
2022/12/25 11:56:16;;;;;;;20.52;9.43;;;8.80;99.90;;;;;;4986644;28;20154;-84
2022/12/25 11:58:49;;;;;;;22.40;8.88;;;9.10;99.90;;;;;;4980880;28;20086;-81
2022/12/25 12:01:30;;;;;;;20.58;9.10;;;8.70;99.90;;;;;;4988796;28;20057;-80
2022/12/25 12:03:58;;;;;;;18.80;8.40;;;8.70;99.90;;;;;;4999686;28;20055;-78
2022/12/25 12:07:19;;;;;;;17.10;8.63;;;9.10;99.90;;;;;;4989879;28;20097;-78
2022/12/25 12:09:51;;;;;;;25.27;8.50;;;8.80;99.90;;;;;;5000795;28;20192;-81
2022/12/25 12:12:37;;;;;;;21.45;8.88;;;9.10;99.90;;;;;;4991206;28;20062;-80
2022/12/25 12:15:11;;;;;;;21.23;8.48;;;8.80;99.90;;;;;;4982723;28;20042;-81
2022/12/25 12:17:36;;;;;;;17.83;8.70;;;8.70;99.90;;;;;;5062076;28;20036;-79
2022/12/25 12:20:32;;;;;;;20.67;7.50;;;8.70;99.90;;;;;;5059741;28;20136;-81
2022/12/25 12:23:09;;;;;;;21.38;8.75;;;8.70;99.90;;;;;;5046693;28;20419;-80
2022/12/25 12:25:39;;;;;;;18.23;8.65;;;8.70;99.90;;;;;;5024085;28;20057;-81
2022/12/25 12:28:19;;;;;;;18.08;8.60;;;9.10;99.90;;;;;;5050187;28;20502;-81
2022/12/25 12:31:00;;;;;;;18.10;8.25;;;8.70;99.90;;;;;;5034319;28;20402;-82
2022/12/25 12:33:35;;;;;;;15.07;7.90;;;9.10;99.90;;;;;;5053562;28;20477;-80
2022/12/25 12:36:03;;;;;;;17.00;8.70;;;9.10;99.90;;;;;;5022846;28;20442;-83
2022/12/25 12:38:31;;;;;;;22.83;8.32;;;8.80;99.90;;;;;;5033528;28;20080;-81
2022/12/25 12:41:02;;;;;;;18.40;9.18;;;8.80;99.90;;;;;;5028789;28;20110;-80
2022/12/25 12:43:30;;;;;;;21.42;8.60;;;8.80;99.90;;;;;;5031053;28;20049;-84
2022/12/25 12:46:14;;;;;;;22.45;9.00;;;9.10;99.90;;;;;;5050757;28;20447;-84
2022/12/25 12:48:43;;;;;;;21.95;9.40;;;8.80;99.90;;;;;;5025770;28;20085;-81
2022/12/25 12:51:12;;;;;;;20.27;9.57;;;9.00;99.90;;;;;;5037863;28;20057;-82
2022/12/25 12:53:40;;;;;;;22.17;9.00;;;9.20;99.90;;;;;;5035765;28;20057;-81
2022/12/25 12:56:17;;;;;;;19.75;8.93;;;9.10;99.90;;;;;;5055537;28;20048;-82
2022/12/25 12:58:49;;;;;;;27.05;10.05;;;9.30;99.90;;;;;;5052239;28;20064;-81
2022/12/25 13:01:39;;;;;;;22.77;9.77;;;9.10;99.90;;;;;;5055270;28;20431;-82
2022/12/25 13:04:29;;;;;;;22.13;12.43;;;9.00;99.90;;;;;;5036583;28;20052;-80
2022/12/25 13:07:10;;;;;;;20.27;8.70;;;9.30;99.90;;;;;;5016473;28;20512;-81
2022/12/25 13:10:22;;;;;;;29.30;11.68;;;9.30;99.90;;;;;;5041334;28;20129;-79
2022/12/25 13:12:55;;;;;;;68.47;47.97;;;9.10;99.90;;;;;;5037216;28;20049;-80
2022/12/25 13:15:26;;;;;;;136.35;91.72;;;9.30;99.90;;;;;;5035478;28;20049;-80
2022/12/25 13:17:53;;;;;;;66.55;47.00;;;9.20;99.90;;;;;;5053601;28;20049;-80
2022/12/25 13:20:36;;;;;;;24.35;13.73;;;9.40;99.90;;;;;;5042957;28;20041;-79
2022/12/25 13:23:33;;;;;;;30.38;13.13;;;9.30;99.90;;;;;;5019098;28;20123;-80
2022/12/25 13:26:00;;;;;;;38.15;24.48;;;9.40;99.90;;;;;;5036464;28;20049;-81
2022/12/25 13:28:30;;;;;;;25.63;11.80;;;9.40;99.90;;;;;;5045096;28;20053;-81
2022/12/25 13:31:20;;;;;;;109.68;68.18;;;9.00;99.90;;;;;;5055498;28;20053;-81
2022/12/25 13:34:03;;;;;;;21.42;11.07;;;9.00;99.90;;;;;;5047515;28;20063;-81
2022/12/25 13:36:35;;;;;;;13.68;7.97;;;9.10;99.90;;;;;;5056245;28;20057;-80
2022/12/25 13:39:01;;;;;;;18.05;9.63;;;9.00;99.90;;;;;;5077142;28;20049;-81
2022/12/25 13:44:27;;;;;;;69.68;53.58;;;9.00;99.90;;;;;;5041289;28;20045;-79
2022/12/25 13:46:54;;;;;;;24.35;14.93;;;9.30;99.90;;;;;;5042551;28;20053;-82
2022/12/25 13:49:22;;;;;;;37.83;24.15;;;9.20;99.90;;;;;;5041884;28;20025;-81
2022/12/25 13:52:12;;;;;;;24.50;13.23;;;9.00;99.90;;;;;;5068324;28;20037;-82
2022/12/25 13:54:38;;;;;;;20.10;9.10;;;9.40;99.90;;;;;;5040201;28;20060;-82
2022/12/25 13:57:10;;;;;;;22.08;10.52;;;9.40;99.90;;;;;;5037578;28;20042;-79
2022/12/25 13:59:36;;;;;;;20.80;10.25;;;9.40;99.90;;;;;;5019850;28;20091;-81
2022/12/25 14:02:03;;;;;;;24.60;10.68;;;9.30;99.90;;;;;;5021327;28;20068;-81
2022/12/25 14:04:28;;;;;;;30.95;17.35;;;9.30;99.90;;;;;;5013038;28;20476;-81
2022/12/25 14:06:54;;;;;;;19.65;11.30;;;9.00;99.90;;;;;;5064059;28;20087;-82
2022/12/25 14:09:21;;;;;;;25.45;11.95;;;9.30;99.90;;;;;;5038768;28;20060;-80
2022/12/25 14:11:51;;;;;;;21.35;10.30;;;9.00;99.90;;;;;;5013088;28;20087;-80
2022/12/25 14:14:25;;;;;;;22.35;13.13;;;9.00;99.90;;;;;;5065833;28;20048;-79
2022/12/25 14:16:55;;;;;;;19.48;11.90;;;9.40;99.90;;;;;;5037977;28;20048;-79
2022/12/25 14:19:30;;;;;;;24.52;12.15;;;9.10;99.90;;;;;;5051448;28;20065;-81
2022/12/25 14:22:20;;;;;;;29.08;16.20;;;9.00;99.90;;;;;;5041038;28;20135;-76
2022/12/25 14:24:46;;;;;;;30.33;20.52;;;9.40;99.90;;;;;;5042980;28;20045;-80
2022/12/25 14:27:27;;;;;;;31.95;16.38;;;9.30;99.90;;;;;;5021126;28;20049;-81
2022/12/25 14:29:58;;;;;;;25.52;14.13;;;9.40;99.90;;;;;;5025555;28;20048;-80
2022/12/25 14:32:28;;;;;;;26.50;17.50;;;9.30;99.90;;;;;;5037843;28;20152;-79
2022/12/25 14:34:57;;;;;;;40.03;25.98;;;9.20;99.90;;;;;;5018979;28;20124;-79
2022/12/25 14:37:28;;;;;;;36.75;20.85;;;9.00;99.90;;;;;;5041893;28;20111;-82
2022/12/25 14:40:17;;;;;;;23.60;14.98;;;9.40;99.90;;;;;;5033799;28;20053;-83
2022/12/25 14:42:57;;;;;;;31.85;18.92;;;9.00;99.90;;;;;;5016755;28;20069;-81
2022/12/25 14:45:26;;;;;;;29.20;18.63;;;9.30;99.90;;;;;;5040217;28;20057;-79
2022/12/25 14:47:59;;;;;;;27.83;17.30;;;9.30;99.90;;;;;;5025315;28;20134;-81
2022/12/25 14:50:29;;;;;;;37.88;21.13;;;9.00;99.90;;;;;;5015812;28;20084;-81
2022/12/25 14:52:55;;;;;;;38.60;22.95;;;9.20;99.90;;;;;;5041206;28;20048;-82
2022/12/25 14:55:23;;;;;;;37.80;22.15;;;9.10;99.90;;;;;;5037634;28;20045;-80
2022/12/25 14:58:03;;;;;;;35.88;22.70;;;8.90;99.90;;;;;;5023980;28;20052;-80
2022/12/25 15:00:34;;;;;;;116.47;59.63;;;9.00;99.90;;;;;;5023766;28;20149;-82